sensor_id;sensor_type;location;lat;lon;timestamp;temperature;humidity
7196;DHT22;3639;51.308;5.624;2022-07-23T00:00:12;17.30;99.90
7196;DHT22;3639;51.308;5.624;2022-07-23T00:02:37;17.30;99.90
7196;DHT22;3639;51.308;5.624;2022-07-23T00:05:03;17.20;99.90
7196;DHT22;3639;51.308;5.624;2022-07-23T00:07:29;17.20;99.90
7196;DHT22;3639;51.308;5.624;2022-07-23T00:09:55;17.20;99.90
7196;DHT22;3639;51.308;5.624;2022-07-23T00:12:21;17.20;99.90
7196;DHT22;3639;51.308;5.624;2022-07-23T00:14:46;17.20;99.90
7196;DHT22;3639;51.308;5.624;2022-07-23T00:17:12;17.10;99.90
7196;DHT22;3639;51.308;5.624;2022-07-23T00:19:38;17.10;99.90
7196;DHT22;3639;51.308;5.624;2022-07-23T00:22:03;17.10;99.90
7196;DHT22;3639;51.308;5.624;2022-07-23T00:24:29;17.00;99.90
7196;DHT22;3639;51.308;5.624;2022-07-23T00:26:55;17.00;99.90
7196;DHT22;3639;51.308;5.624;2022-07-23T00:29:20;17.00;99.90
7196;DHT22;3639;51.308;5.624;2022-07-23T00:31:46;16.90;99.90
7196;DHT22;3639;51.308;5.624;2022-07-23T00:34:12;16.90;99.90
7196;DHT22;3639;51.308;5.624;2022-07-23T00:36:38;16.90;99.90
7196;DHT22;3639;51.308;5.624;2022-07-23T00:39:04;16.90;99.90
7196;DHT22;3639;51.308;5.624;2022-07-23T00:41:30;16.80;99.90
7196;DHT22;3639;51.308;5.624;2022-07-23T00:43:55;16.80;99.90
7196;DHT22;3639;51.308;5.624;2022-07-23T00:46:22;16.80;99.90
7196;DHT22;3639;51.308;5.624;2022-07-23T00:48:48;16.80;99.90
7196;DHT22;3639;51.308;5.624;2022-07-23T00:51:17;16.80;99.90
7196;DHT22;3639;51.308;5.624;2022-07-23T00:53:43;16.70;99.90
7196;DHT22;3639;51.308;5.624;2022-07-23T00:56:10;16.60;99.90
7196;DHT22;3639;51.308;5.624;2022-07-23T00:58:36;16.60;99.90
7196;DHT22;3639;51.308;5.624;2022-07-23T01:01:04;16.70;99.90
7196;DHT22;3639;51.308;5.624;2022-07-23T01:03:30;16.70;99.90
7196;DHT22;3639;51.308;5.624;2022-07-23T01:05:55;16.70;99.90
7196;DHT22;3639;51.308;5.624;2022-07-23T01:08:22;16.60;99.90
7196;DHT22;3639;51.308;5.624;2022-07-23T01:10:48;16.60;99.90
7196;DHT22;3639;51.308;5.624;2022-07-23T01:13:14;16.60;99.90
7196;DHT22;3639;51.308;5.624;2022-07-23T01:15:40;16.50;99.90
7196;DHT22;3639;51.308;5.624;2022-07-23T01:18:06;16.40;99.90
7196;DHT22;3639;51.308;5.624;2022-07-23T01:20:33;16.40;99.90
7196;DHT22;3639;51.308;5.624;2022-07-23T01:22:59;16.40;99.90
7196;DHT22;3639;51.308;5.624;2022-07-23T01:25:25;16.40;99.90
7196;DHT22;3639;51.308;5.624;2022-07-23T01:27:52;16.30;99.90
7196;DHT22;3639;51.308;5.624;2022-07-23T01:30:19;16.30;99.90
7196;DHT22;3639;51.308;5.624;2022-07-23T01:32:45;16.30;99.90
7196;DHT22;3639;51.308;5.624;2022-07-23T01:35:11;16.20;99.90
7196;DHT22;3639;51.308;5.624;2022-07-23T01:37:37;16.20;99.90
7196;DHT22;3639;51.308;5.624;2022-07-23T01:40:03;16.20;99.90
7196;DHT22;3639;51.308;5.624;2022-07-23T01:42:29;16.20;99.90
7196;DHT22;3639;51.308;5.624;2022-07-23T01:44:55;16.10;99.90
7196;DHT22;3639;51.308;5.624;2022-07-23T01:47:21;16.10;99.90
7196;DHT22;3639;51.308;5.624;2022-07-23T01:49:47;16.10;99.90
7196;DHT22;3639;51.308;5.624;2022-07-23T01:52:12;16.00;99.90
7196;DHT22;3639;51.308;5.624;2022-07-23T01:54:38;16.00;99.90
7196;DHT22;3639;51.308;5.624;2022-07-23T01:57:06;15.90;99.90
7196;DHT22;3639;51.308;5.624;2022-07-23T01:59:32;15.90;99.90
7196;DHT22;3639;51.308;5.624;2022-07-23T02:01:57;15.80;99.90
7196;DHT22;3639;51.308;5.624;2022-07-23T02:04:24;15.70;99.90
7196;DHT22;3639;51.308;5.624;2022-07-23T02:06:50;15.70;99.90
7196;DHT22;3639;51.308;5.624;2022-07-23T02:09:16;15.70;99.90
7196;DHT22;3639;51.308;5.624;2022-07-23T02:11:42;15.70;99.90
7196;DHT22;3639;51.308;5.624;2022-07-23T02:14:08;15.60;99.90
7196;DHT22;3639;51.308;5.624;2022-07-23T02:16:33;15.60;99.90
7196;DHT22;3639;51.308;5.624;2022-07-23T02:18:59;15.60;99.90
7196;DHT22;3639;51.308;5.624;2022-07-23T02:21:25;15.60;99.90
7196;DHT22;3639;51.308;5.624;2022-07-23T02:23:50;15.60;99.90
7196;DHT22;3639;51.308;5.624;2022-07-23T02:26:16;15.60;99.90
7196;DHT22;3639;51.308;5.624;2022-07-23T02:28:42;15.50;99.90
7196;DHT22;3639;51.308;5.624;2022-07-23T02:31:07;15.50;99.90
7196;DHT22;3639;51.308;5.624;2022-07-23T02:33:33;15.50;99.90
7196;DHT22;3639;51.308;5.624;2022-07-23T02:35:59;15.50;99.90
7196;DHT22;3639;51.308;5.624;2022-07-23T02:38:25;15.50;99.90
7196;DHT22;3639;51.308;5.624;2022-07-23T02:40:51;15.40;99.90
7196;DHT22;3639;51.308;5.624;2022-07-23T02:43:17;15.40;99.90
7196;DHT22;3639;51.308;5.624;2022-07-23T02:45:42;15.30;99.90
7196;DHT22;3639;51.308;5.624;2022-07-23T02:48:08;15.30;99.90
7196;DHT22;3639;51.308;5.624;2022-07-23T02:50:34;15.30;99.90
7196;DHT22;3639;51.308;5.624;2022-07-23T02:52:59;15.30;99.90
7196;DHT22;3639;51.308;5.624;2022-07-23T02:55:25;15.20;99.90
7196;DHT22;3639;51.308;5.624;2022-07-23T02:57:51;15.20;99.90
7196;DHT22;3639;51.308;5.624;2022-07-23T03:00:16;15.20;99.90
7196;DHT22;3639;51.308;5.624;2022-07-23T03:02:42;15.30;99.90
7196;DHT22;3639;51.308;5.624;2022-07-23T03:05:08;15.20;99.90
7196;DHT22;3639;51.308;5.624;2022-07-23T03:07:34;15.20;99.90
7196;DHT22;3639;51.308;5.624;2022-07-23T03:10:00;15.10;99.90
7196;DHT22;3639;51.308;5.624;2022-07-23T03:12:26;15.10;99.90
7196;DHT22;3639;51.308;5.624;2022-07-23T03:14:51;15.10;99.90
7196;DHT22;3639;51.308;5.624;2022-07-23T03:17:17;15.10;99.90
7196;DHT22;3639;51.308;5.624;2022-07-23T03:19:42;15.10;99.90
7196;DHT22;3639;51.308;5.624;2022-07-23T03:22:08;15.00;99.90
7196;DHT22;3639;51.308;5.624;2022-07-23T03:24:34;15.00;99.90
7196;DHT22;3639;51.308;5.624;2022-07-23T03:27:18;15.00;99.90
7196;DHT22;3639;51.308;5.624;2022-07-23T03:29:43;15.00;99.90
7196;DHT22;3639;51.308;5.624;2022-07-23T03:32:09;15.00;99.90
7196;DHT22;3639;51.308;5.624;2022-07-23T03:34:35;15.00;99.90
7196;DHT22;3639;51.308;5.624;2022-07-23T03:37:01;14.90;99.90
7196;DHT22;3639;51.308;5.624;2022-07-23T03:39:27;14.90;99.90
7196;DHT22;3639;51.308;5.624;2022-07-23T03:41:52;14.90;99.90
7196;DHT22;3639;51.308;5.624;2022-07-23T03:44:18;14.90;99.90
7196;DHT22;3639;51.308;5.624;2022-07-23T03:46:43;14.90;99.90
7196;DHT22;3639;51.308;5.624;2022-07-23T03:49:09;14.90;99.90
7196;DHT22;3639;51.308;5.624;2022-07-23T03:51:35;14.80;99.90
7196;DHT22;3639;51.308;5.624;2022-07-23T03:54:00;14.70;99.90
7196;DHT22;3639;51.308;5.624;2022-07-23T03:56:26;14.70;99.90
7196;DHT22;3639;51.308;5.624;2022-07-23T03:58:52;14.70;99.90
7196;DHT22;3639;51.308;5.624;2022-07-23T04:01:17;14.70;99.90
7196;DHT22;3639;51.308;5.624;2022-07-23T04:03:43;14.60;99.90
7196;DHT22;3639;51.308;5.624;2022-07-23T04:06:09;14.60;99.90
7196;DHT22;3639;51.308;5.624;2022-07-23T04:08:34;14.60;99.90
7196;DHT22;3639;51.308;5.624;2022-07-23T04:11:00;14.60;99.90
7196;DHT22;3639;51.308;5.624;2022-07-23T04:13:25;14.70;99.90
7196;DHT22;3639;51.308;5.624;2022-07-23T04:15:51;14.70;99.90
7196;DHT22;3639;51.308;5.624;2022-07-23T04:18:17;14.70;99.90
7196;DHT22;3639;51.308;5.624;2022-07-23T04:20:44;14.70;99.90
7196;DHT22;3639;51.308;5.624;2022-07-23T04:23:09;14.70;99.90
7196;DHT22;3639;51.308;5.624;2022-07-23T04:25:35;14.70;99.90
7196;DHT22;3639;51.308;5.624;2022-07-23T04:28:01;14.70;99.90
7196;DHT22;3639;51.308;5.624;2022-07-23T04:30:27;14.80;99.90
7196;DHT22;3639;51.308;5.624;2022-07-23T04:32:52;14.80;99.90
7196;DHT22;3639;51.308;5.624;2022-07-23T04:35:18;14.80;99.90
7196;DHT22;3639;51.308;5.624;2022-07-23T04:37:44;14.80;99.90
7196;DHT22;3639;51.308;5.624;2022-07-23T04:40:10;14.80;99.90
7196;DHT22;3639;51.308;5.624;2022-07-23T04:42:36;14.90;99.90
7196;DHT22;3639;51.308;5.624;2022-07-23T04:45:03;14.90;99.90
7196;DHT22;3639;51.308;5.624;2022-07-23T04:47:29;14.90;99.90
7196;DHT22;3639;51.308;5.624;2022-07-23T04:49:56;15.00;99.90
7196;DHT22;3639;51.308;5.624;2022-07-23T04:52:22;14.90;99.90
7196;DHT22;3639;51.308;5.624;2022-07-23T04:54:48;14.90;99.90
7196;DHT22;3639;51.308;5.624;2022-07-23T04:57:14;15.00;99.90
7196;DHT22;3639;51.308;5.624;2022-07-23T04:59:39;15.00;99.90
7196;DHT22;3639;51.308;5.624;2022-07-23T05:02:05;15.00;99.90
7196;DHT22;3639;51.308;5.624;2022-07-23T05:04:31;15.10;99.90
7196;DHT22;3639;51.308;5.624;2022-07-23T05:06:59;15.10;99.90
7196;DHT22;3639;51.308;5.624;2022-07-23T05:09:25;15.20;99.90
7196;DHT22;3639;51.308;5.624;2022-07-23T05:11:51;15.20;99.90
7196;DHT22;3639;51.308;5.624;2022-07-23T05:14:17;15.30;99.90
7196;DHT22;3639;51.308;5.624;2022-07-23T05:16:42;15.30;99.90
7196;DHT22;3639;51.308;5.624;2022-07-23T05:19:08;15.40;99.90
7196;DHT22;3639;51.308;5.624;2022-07-23T05:21:34;15.40;99.90
7196;DHT22;3639;51.308;5.624;2022-07-23T05:24:00;15.40;99.90
7196;DHT22;3639;51.308;5.624;2022-07-23T05:26:26;15.50;99.90
7196;DHT22;3639;51.308;5.624;2022-07-23T05:28:51;15.50;99.90
7196;DHT22;3639;51.308;5.624;2022-07-23T05:31:17;15.50;99.90
7196;DHT22;3639;51.308;5.624;2022-07-23T05:33:43;15.50;99.90
7196;DHT22;3639;51.308;5.624;2022-07-23T05:36:09;15.50;99.90
7196;DHT22;3639;51.308;5.624;2022-07-23T05:38:35;15.50;99.90
7196;DHT22;3639;51.308;5.624;2022-07-23T05:41:01;15.60;99.90
7196;DHT22;3639;51.308;5.624;2022-07-23T05:43:27;15.70;99.90
7196;DHT22;3639;51.308;5.624;2022-07-23T05:45:53;15.70;99.90
7196;DHT22;3639;51.308;5.624;2022-07-23T05:48:19;15.70;99.90
7196;DHT22;3639;51.308;5.624;2022-07-23T05:50:46;15.70;99.90
7196;DHT22;3639;51.308;5.624;2022-07-23T05:53:14;15.80;99.90
7196;DHT22;3639;51.308;5.624;2022-07-23T05:55:40;15.90;99.90
7196;DHT22;3639;51.308;5.624;2022-07-23T05:58:06;16.00;99.90
7196;DHT22;3639;51.308;5.624;2022-07-23T06:00:34;16.00;99.90
7196;DHT22;3639;51.308;5.624;2022-07-23T06:03:00;16.10;99.90
7196;DHT22;3639;51.308;5.624;2022-07-23T06:05:26;16.20;99.90
7196;DHT22;3639;51.308;5.624;2022-07-23T06:07:51;16.20;99.90
7196;DHT22;3639;51.308;5.624;2022-07-23T06:10:20;16.30;99.90
7196;DHT22;3639;51.308;5.624;2022-07-23T06:12:46;16.30;99.90
7196;DHT22;3639;51.308;5.624;2022-07-23T06:15:12;16.30;99.90
7196;DHT22;3639;51.308;5.624;2022-07-23T06:17:38;16.50;99.90
7196;DHT22;3639;51.308;5.624;2022-07-23T06:20:08;16.60;99.90
7196;DHT22;3639;51.308;5.624;2022-07-23T06:22:35;16.60;99.90
7196;DHT22;3639;51.308;5.624;2022-07-23T06:25:01;16.70;99.90
7196;DHT22;3639;51.308;5.624;2022-07-23T06:27:27;16.80;99.90
7196;DHT22;3639;51.308;5.624;2022-07-23T06:29:53;16.90;99.90
7196;DHT22;3639;51.308;5.624;2022-07-23T06:32:19;17.00;99.90
7196;DHT22;3639;51.308;5.624;2022-07-23T06:34:44;17.20;99.90
7196;DHT22;3639;51.308;5.624;2022-07-23T06:37:10;17.30;99.90
7196;DHT22;3639;51.308;5.624;2022-07-23T06:39:36;17.50;99.90
7196;DHT22;3639;51.308;5.624;2022-07-23T06:42:01;17.50;99.90
7196;DHT22;3639;51.308;5.624;2022-07-23T06:44:27;17.70;99.90
7196;DHT22;3639;51.308;5.624;2022-07-23T06:46:53;17.90;99.90
7196;DHT22;3639;51.308;5.624;2022-07-23T06:49:19;17.90;99.90
7196;DHT22;3639;51.308;5.624;2022-07-23T06:51:44;18.00;99.90
7196;DHT22;3639;51.308;5.624;2022-07-23T06:54:10;18.10;99.90
7196;DHT22;3639;51.308;5.624;2022-07-23T06:56:36;18.20;99.90
7196;DHT22;3639;51.308;5.624;2022-07-23T06:59:02;18.30;99.90
7196;DHT22;3639;51.308;5.624;2022-07-23T07:01:28;18.40;99.90
7196;DHT22;3639;51.308;5.624;2022-07-23T07:03:53;18.40;99.90
7196;DHT22;3639;51.308;5.624;2022-07-23T07:06:19;18.50;99.90
7196;DHT22;3639;51.308;5.624;2022-07-23T07:08:45;18.60;99.90
7196;DHT22;3639;51.308;5.624;2022-07-23T07:11:10;18.80;99.90
7196;DHT22;3639;51.308;5.624;2022-07-23T07:13:37;18.90;99.90
7196;DHT22;3639;51.308;5.624;2022-07-23T07:16:04;19.00;99.90
7196;DHT22;3639;51.308;5.624;2022-07-23T07:18:30;19.20;99.90
7196;DHT22;3639;51.308;5.624;2022-07-23T07:20:57;19.50;99.90
7196;DHT22;3639;51.308;5.624;2022-07-23T07:23:22;19.70;99.90
7196;DHT22;3639;51.308;5.624;2022-07-23T07:25:48;19.80;99.90
7196;DHT22;3639;51.308;5.624;2022-07-23T07:28:14;19.80;99.90
7196;DHT22;3639;51.308;5.624;2022-07-23T07:30:40;19.90;99.90
7196;DHT22;3639;51.308;5.624;2022-07-23T07:33:06;19.90;99.90
7196;DHT22;3639;51.308;5.624;2022-07-23T07:35:31;20.10;99.90
7196;DHT22;3639;51.308;5.624;2022-07-23T07:37:59;20.00;99.90
7196;DHT22;3639;51.308;5.624;2022-07-23T07:40:25;20.00;99.90
7196;DHT22;3639;51.308;5.624;2022-07-23T07:42:53;20.10;99.90
7196;DHT22;3639;51.308;5.624;2022-07-23T07:45:23;20.20;99.90
7196;DHT22;3639;51.308;5.624;2022-07-23T07:47:49;20.30;99.90
7196;DHT22;3639;51.308;5.624;2022-07-23T07:50:15;20.30;99.90
7196;DHT22;3639;51.308;5.624;2022-07-23T07:52:41;20.30;99.90
7196;DHT22;3639;51.308;5.624;2022-07-23T07:55:08;20.50;99.90
7196;DHT22;3639;51.308;5.624;2022-07-23T07:57:34;20.60;99.90
7196;DHT22;3639;51.308;5.624;2022-07-23T08:00:00;20.80;99.90
7196;DHT22;3639;51.308;5.624;2022-07-23T08:02:26;21.00;99.90
7196;DHT22;3639;51.308;5.624;2022-07-23T08:04:52;20.90;99.90
7196;DHT22;3639;51.308;5.624;2022-07-23T08:07:19;21.10;99.90
7196;DHT22;3639;51.308;5.624;2022-07-23T08:09:44;21.30;99.90
7196;DHT22;3639;51.308;5.624;2022-07-23T08:12:10;21.50;99.90
7196;DHT22;3639;51.308;5.624;2022-07-23T08:14:36;21.40;99.90
7196;DHT22;3639;51.308;5.624;2022-07-23T08:17:07;21.10;99.90
7196;DHT22;3639;51.308;5.624;2022-07-23T08:19:32;21.30;99.90
7196;DHT22;3639;51.308;5.624;2022-07-23T08:22:01;21.40;99.90
7196;DHT22;3639;51.308;5.624;2022-07-23T08:24:29;21.50;99.90
7196;DHT22;3639;51.308;5.624;2022-07-23T08:26:55;21.80;99.90
7196;DHT22;3639;51.308;5.624;2022-07-23T08:29:26;21.90;99.90
7196;DHT22;3639;51.308;5.624;2022-07-23T08:32:01;22.00;99.90
7196;DHT22;3639;51.308;5.624;2022-07-23T08:34:26;22.20;99.90
7196;DHT22;3639;51.308;5.624;2022-07-23T08:36:58;22.10;99.90
7196;DHT22;3639;51.308;5.624;2022-07-23T08:39:32;22.10;99.90
7196;DHT22;3639;51.308;5.624;2022-07-23T08:41:57;22.00;99.90
7196;DHT22;3639;51.308;5.624;2022-07-23T08:44:23;21.60;99.90
7196;DHT22;3639;51.308;5.624;2022-07-23T08:46:49;21.70;99.90
7196;DHT22;3639;51.308;5.624;2022-07-23T08:49:14;21.90;99.90
7196;DHT22;3639;51.308;5.624;2022-07-23T08:51:40;22.20;99.90
7196;DHT22;3639;51.308;5.624;2022-07-23T08:54:07;22.40;99.90
7196;DHT22;3639;51.308;5.624;2022-07-23T08:56:32;22.70;99.90
7196;DHT22;3639;51.308;5.624;2022-07-23T08:58:58;22.50;99.90
7196;DHT22;3639;51.308;5.624;2022-07-23T09:01:24;22.60;99.90
7196;DHT22;3639;51.308;5.624;2022-07-23T09:03:49;22.70;99.90
7196;DHT22;3639;51.308;5.624;2022-07-23T09:06:17;22.90;99.90
7196;DHT22;3639;51.308;5.624;2022-07-23T09:08:44;23.00;99.90
7196;DHT22;3639;51.308;5.624;2022-07-23T09:11:15;23.10;99.90
7196;DHT22;3639;51.308;5.624;2022-07-23T09:13:49;23.20;99.90
7196;DHT22;3639;51.308;5.624;2022-07-23T09:16:25;23.30;99.80
7196;DHT22;3639;51.308;5.624;2022-07-23T09:18:56;23.30;99.90
7196;DHT22;3639;51.308;5.624;2022-07-23T09:21:28;23.30;99.90
7196;DHT22;3639;51.308;5.624;2022-07-23T09:26:37;22.90;99.90
7196;DHT22;3639;51.308;5.624;2022-07-23T09:29:04;22.80;99.90
7196;DHT22;3639;51.308;5.624;2022-07-23T09:32:04;22.90;99.90
7196;DHT22;3639;51.308;5.624;2022-07-23T09:34:32;23.10;99.90
7196;DHT22;3639;51.308;5.624;2022-07-23T09:37:14;23.40;99.90
7196;DHT22;3639;51.308;5.624;2022-07-23T09:39:41;23.30;98.90
7196;DHT22;3639;51.308;5.624;2022-07-23T09:44:47;23.40;99.20
7196;DHT22;3639;51.308;5.624;2022-07-23T09:47:12;23.30;99.30
7196;DHT22;3639;51.308;5.624;2022-07-23T09:49:38;23.30;99.50
7196;DHT22;3639;51.308;5.624;2022-07-23T09:52:05;23.40;99.90
7196;DHT22;3639;51.308;5.624;2022-07-23T09:54:39;23.70;99.90
7196;DHT22;3639;51.308;5.624;2022-07-23T09:57:12;23.90;99.30
7196;DHT22;3639;51.308;5.624;2022-07-23T09:59:43;24.20;98.80
7196;DHT22;3639;51.308;5.624;2022-07-23T10:02:10;24.10;98.00
7196;DHT22;3639;51.308;5.624;2022-07-23T10:04:38;23.90;98.00
7196;DHT22;3639;51.308;5.624;2022-07-23T10:07:06;24.00;98.90
7196;DHT22;3639;51.308;5.624;2022-07-23T10:09:36;24.30;98.20
7196;DHT22;3639;51.308;5.624;2022-07-23T10:12:04;24.50;98.20
7196;DHT22;3639;51.308;5.624;2022-07-23T10:14:47;24.50;97.60
7196;DHT22;3639;51.308;5.624;2022-07-23T10:17:13;24.50;97.70
7196;DHT22;3639;51.308;5.624;2022-07-23T10:19:39;24.60;97.90
7196;DHT22;3639;51.308;5.624;2022-07-23T10:22:14;24.70;97.80
7196;DHT22;3639;51.308;5.624;2022-07-23T10:24:47;24.90;97.00
7196;DHT22;3639;51.308;5.624;2022-07-23T10:33:27;25.00;96.30
7196;DHT22;3639;51.308;5.624;2022-07-23T10:36:12;25.20;96.50
7196;DHT22;3639;51.308;5.624;2022-07-23T10:39:10;25.30;95.90
7196;DHT22;3639;51.308;5.624;2022-07-23T10:41:40;25.30;95.80
7196;DHT22;3639;51.308;5.624;2022-07-23T10:44:07;25.50;95.80
7196;DHT22;3639;51.308;5.624;2022-07-23T10:46:33;25.60;95.40
7196;DHT22;3639;51.308;5.624;2022-07-23T10:49:22;25.70;94.40
7196;DHT22;3639;51.308;5.624;2022-07-23T10:54:43;24.90;94.90
7196;DHT22;3639;51.308;5.624;2022-07-23T10:57:11;24.80;95.60
7196;DHT22;3639;51.308;5.624;2022-07-23T11:02:35;25.00;95.40
7196;DHT22;3639;51.308;5.624;2022-07-23T11:05:09;25.20;95.70
7196;DHT22;3639;51.308;5.624;2022-07-23T11:08:21;25.20;95.40
7196;DHT22;3639;51.308;5.624;2022-07-23T11:11:08;25.40;96.20
7196;DHT22;3639;51.308;5.624;2022-07-23T11:24:00;25.60;94.30
7196;DHT22;3639;51.308;5.624;2022-07-23T11:32:05;25.40;93.80
7196;DHT22;3639;51.308;5.624;2022-07-23T11:34:42;25.60;94.20
7196;DHT22;3639;51.308;5.624;2022-07-23T11:37:10;25.70;93.10
7196;DHT22;3639;51.308;5.624;2022-07-23T11:39:37;25.70;94.00
7196;DHT22;3639;51.308;5.624;2022-07-23T11:42:04;25.80;93.40
7196;DHT22;3639;51.308;5.624;2022-07-23T11:44:38;25.70;93.10
7196;DHT22;3639;51.308;5.624;2022-07-23T11:47:11;25.50;93.00
7196;DHT22;3639;51.308;5.624;2022-07-23T11:49:51;25.40;93.20
7196;DHT22;3639;51.308;5.624;2022-07-23T11:52:17;25.60;93.10
7196;DHT22;3639;51.308;5.624;2022-07-23T11:54:50;25.90;93.80
7196;DHT22;3639;51.308;5.624;2022-07-23T11:57:16;26.10;92.50
7196;DHT22;3639;51.308;5.624;2022-07-23T11:59:42;26.30;92.20
7196;DHT22;3639;51.308;5.624;2022-07-23T12:02:09;26.30;92.00
7196;DHT22;3639;51.308;5.624;2022-07-23T12:04:45;26.30;91.40
7196;DHT22;3639;51.308;5.624;2022-07-23T12:09:52;25.80;92.10
7196;DHT22;3639;51.308;5.624;2022-07-23T12:12:18;25.90;92.00
7196;DHT22;3639;51.308;5.624;2022-07-23T12:15:04;25.90;92.20
7196;DHT22;3639;51.308;5.624;2022-07-23T12:17:32;26.10;92.10
7196;DHT22;3639;51.308;5.624;2022-07-23T12:20:00;26.20;92.20
7196;DHT22;3639;51.308;5.624;2022-07-23T12:22:40;26.30;91.50
7196;DHT22;3639;51.308;5.624;2022-07-23T12:27:35;26.50;91.80
7196;DHT22;3639;51.308;5.624;2022-07-23T12:30:24;26.50;91.30
7196;DHT22;3639;51.308;5.624;2022-07-23T12:32:54;26.50;91.20
7196;DHT22;3639;51.308;5.624;2022-07-23T12:35:22;26.50;91.30
7196;DHT22;3639;51.308;5.624;2022-07-23T12:37:50;26.30;91.00
7196;DHT22;3639;51.308;5.624;2022-07-23T12:42:49;26.40;92.10
7196;DHT22;3639;51.308;5.624;2022-07-23T12:45:16;26.60;91.20
7196;DHT22;3639;51.308;5.624;2022-07-23T12:48:05;26.30;91.00
7196;DHT22;3639;51.308;5.624;2022-07-23T12:53:12;26.20;91.20
7196;DHT22;3639;51.308;5.624;2022-07-23T12:55:39;26.10;91.40
7196;DHT22;3639;51.308;5.624;2022-07-23T12:58:07;25.90;91.70
7196;DHT22;3639;51.308;5.624;2022-07-23T13:03:31;26.10;92.50
7196;DHT22;3639;51.308;5.624;2022-07-23T13:05:58;26.20;91.50
7196;DHT22;3639;51.308;5.624;2022-07-23T13:08:26;26.60;92.00
7196;DHT22;3639;51.308;5.624;2022-07-23T13:10:53;26.80;91.10
7196;DHT22;3639;51.308;5.624;2022-07-23T13:13:25;26.60;90.70
7196;DHT22;3639;51.308;5.624;2022-07-23T13:15:52;26.60;90.90
7196;DHT22;3639;51.308;5.624;2022-07-23T13:18:18;26.60;90.90
7196;DHT22;3639;51.308;5.624;2022-07-23T13:20:46;26.60;90.90
7196;DHT22;3639;51.308;5.624;2022-07-23T13:23:13;26.70;91.50
7196;DHT22;3639;51.308;5.624;2022-07-23T13:25:39;26.90;91.50
7196;DHT22;3639;51.308;5.624;2022-07-23T13:28:04;27.00;91.20
7196;DHT22;3639;51.308;5.624;2022-07-23T13:30:30;27.10;90.90
7196;DHT22;3639;51.308;5.624;2022-07-23T13:32:56;27.10;90.70
7196;DHT22;3639;51.308;5.624;2022-07-23T13:35:22;27.20;90.00
7196;DHT22;3639;51.308;5.624;2022-07-23T13:37:48;27.00;90.30
7196;DHT22;3639;51.308;5.624;2022-07-23T13:40:13;26.80;90.20
7196;DHT22;3639;51.308;5.624;2022-07-23T13:42:39;26.80;91.30
7196;DHT22;3639;51.308;5.624;2022-07-23T13:45:05;26.80;91.10
7196;DHT22;3639;51.308;5.624;2022-07-23T13:47:31;26.80;91.10
7196;DHT22;3639;51.308;5.624;2022-07-23T13:49:57;26.90;91.00
7196;DHT22;3639;51.308;5.624;2022-07-23T13:52:25;27.00;90.80
7196;DHT22;3639;51.308;5.624;2022-07-23T13:54:51;27.10;90.40
7196;DHT22;3639;51.308;5.624;2022-07-23T13:57:17;27.20;90.40
7196;DHT22;3639;51.308;5.624;2022-07-23T13:59:43;27.10;90.50
7196;DHT22;3639;51.308;5.624;2022-07-23T14:02:08;27.10;90.80
7196;DHT22;3639;51.308;5.624;2022-07-23T14:04:34;27.10;91.30
7196;DHT22;3639;51.308;5.624;2022-07-23T14:07:00;27.10;90.60
7196;DHT22;3639;51.308;5.624;2022-07-23T14:09:26;27.20;90.60
7196;DHT22;3639;51.308;5.624;2022-07-23T14:11:53;27.20;90.80
7196;DHT22;3639;51.308;5.624;2022-07-23T14:14:19;27.30;90.50
7196;DHT22;3639;51.308;5.624;2022-07-23T14:16:45;27.20;89.80
7196;DHT22;3639;51.308;5.624;2022-07-23T14:19:11;27.10;90.50
7196;DHT22;3639;51.308;5.624;2022-07-23T14:21:37;27.20;90.70
7196;DHT22;3639;51.308;5.624;2022-07-23T14:24:03;27.20;90.20
7196;DHT22;3639;51.308;5.624;2022-07-23T14:26:29;27.10;90.00
7196;DHT22;3639;51.308;5.624;2022-07-23T14:28:55;27.10;90.30
7196;DHT22;3639;51.308;5.624;2022-07-23T14:31:21;27.20;90.70
7196;DHT22;3639;51.308;5.624;2022-07-23T14:33:48;27.30;90.00
7196;DHT22;3639;51.308;5.624;2022-07-23T14:36:14;27.20;90.00
7196;DHT22;3639;51.308;5.624;2022-07-23T14:38:39;27.30;90.50
7196;DHT22;3639;51.308;5.624;2022-07-23T14:41:05;27.30;90.20
7196;DHT22;3639;51.308;5.624;2022-07-23T14:43:33;27.30;90.30
7196;DHT22;3639;51.308;5.624;2022-07-23T14:45:59;27.60;87.90
7196;DHT22;3639;51.308;5.624;2022-07-23T14:48:25;27.90;87.20
7196;DHT22;3639;51.308;5.624;2022-07-23T14:50:51;28.00;86.80
7196;DHT22;3639;51.308;5.624;2022-07-23T14:53:17;28.00;87.40
7196;DHT22;3639;51.308;5.624;2022-07-23T14:55:42;28.00;87.40
7196;DHT22;3639;51.308;5.624;2022-07-23T14:58:09;28.10;85.20
7196;DHT22;3639;51.308;5.624;2022-07-23T15:00:35;28.10;85.40
7196;DHT22;3639;51.308;5.624;2022-07-23T15:03:01;28.20;86.70
7196;DHT22;3639;51.308;5.624;2022-07-23T15:05:26;28.40;86.80
7196;DHT22;3639;51.308;5.624;2022-07-23T15:07:53;28.50;86.40
7196;DHT22;3639;51.308;5.624;2022-07-23T15:10:19;28.50;84.30
7196;DHT22;3639;51.308;5.624;2022-07-23T15:12:44;28.40;85.20
7196;DHT22;3639;51.308;5.624;2022-07-23T15:15:10;28.30;85.20
7196;DHT22;3639;51.308;5.624;2022-07-23T15:17:37;28.30;84.80
7196;DHT22;3639;51.308;5.624;2022-07-23T15:20:03;28.20;85.10
7196;DHT22;3639;51.308;5.624;2022-07-23T15:22:29;28.20;84.50
7196;DHT22;3639;51.308;5.624;2022-07-23T15:24:54;28.00;84.30
7196;DHT22;3639;51.308;5.624;2022-07-23T15:27:20;27.80;84.10
7196;DHT22;3639;51.308;5.624;2022-07-23T15:29:46;27.50;84.60
7196;DHT22;3639;51.308;5.624;2022-07-23T15:32:11;27.40;85.50
7196;DHT22;3639;51.308;5.624;2022-07-23T15:34:38;27.50;86.80
7196;DHT22;3639;51.308;5.624;2022-07-23T15:37:04;27.60;86.80
7196;DHT22;3639;51.308;5.624;2022-07-23T15:39:32;27.70;86.00
7196;DHT22;3639;51.308;5.624;2022-07-23T15:42:02;27.60;85.60
7196;DHT22;3639;51.308;5.624;2022-07-23T15:44:28;27.40;86.70
7196;DHT22;3639;51.308;5.624;2022-07-23T15:46:54;27.40;86.60
7196;DHT22;3639;51.308;5.624;2022-07-23T15:49:20;27.40;86.50
7196;DHT22;3639;51.308;5.624;2022-07-23T15:51:47;27.40;87.80
7196;DHT22;3639;51.308;5.624;2022-07-23T15:54:12;27.50;87.20
7196;DHT22;3639;51.308;5.624;2022-07-23T15:56:38;27.60;85.90
7196;DHT22;3639;51.308;5.624;2022-07-23T15:59:04;27.60;85.00
7196;DHT22;3639;51.308;5.624;2022-07-23T16:01:31;27.70;86.00
7196;DHT22;3639;51.308;5.624;2022-07-23T16:03:57;27.70;86.60
7196;DHT22;3639;51.308;5.624;2022-07-23T16:06:26;27.70;86.30
7196;DHT22;3639;51.308;5.624;2022-07-23T16:08:52;27.80;86.60
7196;DHT22;3639;51.308;5.624;2022-07-23T16:11:18;28.00;85.30
7196;DHT22;3639;51.308;5.624;2022-07-23T16:13:44;28.00;85.40
7196;DHT22;3639;51.308;5.624;2022-07-23T16:16:10;28.10;84.60
7196;DHT22;3639;51.308;5.624;2022-07-23T16:18:38;28.00;83.90
7196;DHT22;3639;51.308;5.624;2022-07-23T16:21:04;27.90;84.60
7196;DHT22;3639;51.308;5.624;2022-07-23T16:23:29;27.80;86.00
7196;DHT22;3639;51.308;5.624;2022-07-23T16:25:55;27.80;84.90
7196;DHT22;3639;51.308;5.624;2022-07-23T16:28:21;27.80;84.50
7196;DHT22;3639;51.308;5.624;2022-07-23T16:30:47;27.80;85.40
7196;DHT22;3639;51.308;5.624;2022-07-23T16:33:12;27.90;84.70
7196;DHT22;3639;51.308;5.624;2022-07-23T16:35:38;27.70;83.90
7196;DHT22;3639;51.308;5.624;2022-07-23T16:38:04;27.60;85.10
7196;DHT22;3639;51.308;5.624;2022-07-23T16:40:31;27.40;85.20
7196;DHT22;3639;51.308;5.624;2022-07-23T16:42:57;27.30;86.90
7196;DHT22;3639;51.308;5.624;2022-07-23T16:45:24;27.20;87.20
7196;DHT22;3639;51.308;5.624;2022-07-23T16:47:49;27.20;89.00